Time;durP1;ratioP1;P1;durP2;ratioP2;P2;SDS_P1;SDS_P2;PMS_P1;PMS_P2;Temp;Humidity;BMP_temperature;BMP_pressure;BME280_temperature;BME280_humidity;BME280_pressure;Samples;Min_cycle;Max_cycle;Signal;HPM_P1;HPM_P2
2022/09/21 00:05:35;;;;;;;;;;;;;;;;;;20749228;28;20025;-63
2022/09/21 00:15:37;;;;;;;;;;;;;;;;;;20750011;28;19929;-69
2022/09/21 00:25:39;;;;;;;;;;;;;;;;;;20748514;28;19925;-68
2022/09/21 00:35:41;;;;;;;;;;;;;;;;;;20747621;28;19925;-68
2022/09/21 00:45:43;;;;;;;;;;;;;;;;;;20747487;28;19981;-67
2022/09/21 00:55:44;;;;;;;;;;;;;;;;;;20746774;28;19925;-65
2022/09/21 01:05:46;;;;;;;;;;;;;;;;;;20754704;28;19926;-61
2022/09/21 01:15:48;;;;;;;;;;;;;;;;;;20761835;28;19964;-63
2022/09/21 01:25:51;;;;;;;;;;;;;;;;;;20760244;28;19926;-61
2022/09/21 01:35:53;;;;;;;;;;;;;;;;;;20758829;28;19965;-66
2022/09/21 01:45:56;;;;;;;;;;;;;;;;;;20759100;28;20024;-65
2022/09/21 01:56:03;;;;;;;;;;;;;;;;;;20758100;28;19925;-61
2022/09/21 02:06:13;;;;;;;;;;;;;;;;;;20758362;28;19925;-67
2022/09/21 02:16:17;;;;;;;;;;;;;;;;;;20756485;28;19926;-60
2022/09/21 02:26:20;;;;;;;;;;;;;;;;;;20757022;28;19925;-63
2022/09/21 02:36:28;;;;;;;;;;;;;;;;;;20754454;28;19948;-63
2022/09/21 02:46:31;;;;;;;;;;;;;;;;;;20755062;28;19925;-61
2022/09/21 02:56:33;;;;;;;;;;;;;;;;;;20753573;28;20002;-61
2022/09/21 03:06:37;;;;;;;;;;;;;;;;;;20752716;28;19972;-69
2022/09/21 03:16:40;;;;;;;;;;;;;;;;;;20752364;28;19925;-66
2022/09/21 03:26:42;;;;;;;;;;;;;;;;;;20750927;28;19929;-67
2022/09/21 03:36:46;;;;;;;;;;;;;;;;;;20750170;28;19929;-66
2022/09/21 03:46:50;;;;;;;;;;;;;;;;;;20750449;28;20023;-66
2022/09/21 03:56:51;;;;;;;;;;;;;;;;;;20749497;28;19925;-60
2022/09/21 04:06:53;;;;;;;;;;;;;;;;;;20749938;28;19932;-66
2022/09/21 04:16:56;;;;;;;;;;;;;;;;;;20750848;28;19980;-59
2022/09/21 04:26:59;;;;;;;;;;;;;;;;;;20748677;28;20382;-61
2022/09/21 04:37:01;;;;;;;;;;;;;;;;;;20749688;28;19930;-66
2022/09/21 04:47:03;;;;;;;;;;;;;;;;;;20763652;28;19929;-59
2022/09/21 04:57:05;;;;;;;;;;;;;;;;;;20763861;28;20342;-60
2022/09/21 05:07:07;;;;;;;;;;;;;;;;;;20761964;28;19929;-59
2022/09/21 05:17:10;;;;;;;;;;;;;;;;;;20761572;28;19937;-60
2022/09/21 05:27:12;;;;;;;;;;;;;;;;;;20760717;28;19925;-62
2022/09/21 05:37:14;;;;;;;;;;;;;;;;;;20759405;28;19979;-60
2022/09/21 05:47:16;;;;;;;;;;;;;;;;;;20759091;28;20425;-66
2022/09/21 05:57:17;;;;;;;;;;;;;;;;;;20757512;28;19933;-60
2022/09/21 06:07:19;;;;;;;;;;;;;;;;;;20757762;28;19925;-59
2022/09/21 06:17:21;;;;;;;;;;;;;;;;;;20756471;28;20460;-58
2022/09/21 06:27:23;;;;;;;;;;;;;;;;;;20755558;28;19932;-59
2022/09/21 06:37:25;;;;;;;;;;;;;;;;;;20755583;28;19948;-59
2022/09/21 06:47:27;;;;;;;;;;;;;;;;;;20755552;28;19926;-60
2022/09/21 06:57:30;;;;;;;;;;;;;;;;;;20753631;28;20112;-60
2022/09/21 07:07:32;;;;;;;;;;;;;;;;;;20752332;28;19956;-61
2022/09/21 07:17:34;;;;;;;;;;;;;;;;;;20752029;28;19925;-61
2022/09/21 07:27:36;;;;;;;;;;;;;;;;;;20751335;28;19926;-58
2022/09/21 07:37:38;;;;;;;;;;;;;;;;;;20750802;28;19925;-59
2022/09/21 07:47:40;;;;;;;;;;;;;;;;;;20749977;28;19972;-59
2022/09/21 08:08:03;;;;;;;;;;;;;;;;;;20748684;28;19927;-58
2022/09/21 08:18:06;;;;;;;;;;;;;;;;;;20747738;28;19980;-57
2022/09/21 08:28:08;;;;;;;;;;;;;;;;;;20748421;28;20301;-58
2022/09/21 08:38:10;;;;;;;;;;;;;;;;;;20748856;28;20381;-60
2022/09/21 08:48:12;;;;;;;;;;;;;;;;;;20751391;28;19980;-61
2022/09/21 08:58:14;;;;;;;;;;;;;;;;;;20747884;28;19972;-63
2022/09/21 09:08:18;;;;;;;;;;;;;;;;;;20746740;28;19925;-65
2022/09/21 09:18:20;;;;;;;;;;;;;;;;;;20743627;28;19926;-65
2022/09/21 09:28:22;;;;;;;;;;;;;;;;;;20752610;28;19988;-61
2022/09/21 09:38:24;;;;;;;;;;;;;;;;;;20758479;28;20032;-70
2022/09/21 09:48:26;;;;;;;;;;;;;;;;;;20766371;28;20023;-64
2022/09/21 09:58:29;;;;;;;;;;;;;;;;;;20761311;28;20012;-66
2022/09/21 10:08:31;;;;;;;;;;;;;;;;;;20755332;28;19933;-60
2022/09/21 10:18:33;;;;;;;;;;;;;;;;;;20754713;28;20306;-69
2022/09/21 10:28:35;;;;;;;;;;;;;;;;;;20755251;28;19987;-63
2022/09/21 10:38:37;;;;;;;;;;;;;;;;;;20755414;28;20267;-61
2022/09/21 10:48:39;;;;;;;;;;;;;;;;;;20752011;28;20472;-61
2022/09/21 10:58:40;;;;;;;;;;;;;;;;;;20751518;28;19925;-61
2022/09/21 11:08:42;;;;;;;;;;;;;;;;;;20750406;28;20023;-61
2022/09/21 11:18:44;;;;;;;;;;;;;;;;;;20749491;28;19937;-60
2022/09/21 11:28:46;;;;;;;;;;;;;;;;;;20746742;28;19968;-62
2022/09/21 11:38:47;;;;;;;;;;;;;;;;;;20748550;28;19926;-67
2022/09/21 11:48:49;;;;;;;;;;;;;;;;;;20747906;28;19987;-63
2022/09/21 11:58:51;;;;;;;;;;;;;;;;;;20746978;28;19925;-63
2022/09/21 12:08:53;;;;;;;;;;;;;;;;;;20747663;28;19972;-62
2022/09/21 12:18:55;;;;;;;;;;;;;;;;;;20746636;28;19926;-60
2022/09/21 12:28:59;;;;;;;;;;;;;;;;;;20748324;28;20401;-60
2022/09/21 12:39:01;;;;;;;;;;;;;;;;;;20748749;28;19972;-63
2022/09/21 12:49:03;;;;;;;;;;;;;;;;;;20748182;28;20020;-62
2022/09/21 12:59:06;;;;;;;;;;;;;;;;;;20750272;28;19933;-61
2022/09/21 13:09:08;;;;;;;;;;;;;;;;;;20765253;28;20396;-61
2022/09/21 13:19:12;;;;;;;;;;;;;;;;;;20761632;28;20012;-61
2022/09/21 13:29:14;;;;;;;;;;;;;;;;;;20761533;28;19930;-62
2022/09/21 13:39:16;;;;;;;;;;;;;;;;;;20759441;28;19933;-60
2022/09/21 13:49:18;;;;;;;;;;;;;;;;;;20759469;28;20267;-60
2022/09/21 13:59:21;;;;;;;;;;;;;;;;;;20758084;28;19926;-60
2022/09/21 14:09:23;;;;;;;;;;;;;;;;;;20757068;28;19929;-62
2022/09/21 14:19:31;;;;;;;;;;;;;;;;;;20756602;28;19925;-63
2022/09/21 14:29:35;;;;;;;;;;;;;;;;;;20756614;28;19929;-62
2022/09/21 14:39:37;;;;;;;;;;;;;;;;;;20756115;28;19988;-61
2022/09/21 14:49:39;;;;;;;;;;;;;;;;;;20756483;28;19925;-62
2022/09/21 14:59:41;;;;;;;;;;;;;;;;;;20753950;28;19930;-65
2022/09/21 15:20:03;;;;;;;;;;;;;;;;;;20752744;28;19926;-66
2022/09/21 15:30:05;;;;;;;;;;;;;;;;;;20751338;28;19979;-59
2022/09/21 15:40:08;;;;;;;;;;;;;;;;;;20751846;28;20365;-65
2022/09/21 15:50:10;;;;;;;;;;;;;;;;;;20733104;28;20321;-65
2022/09/21 16:00:23;;;;;;;;;;;;;;;;;;20749791;28;19929;-68
2022/09/21 16:10:26;;;;;;;;;;;;;;;;;;20750370;28;19926;-61
2022/09/21 16:20:28;;;;;;;;;;;;;;;;;;20749217;28;19931;-67
2022/09/21 16:30:30;;;;;;;;;;;;;;;;;;20748856;28;19995;-68
2022/09/21 16:40:32;;;;;;;;;;;;;;;;;;20761831;28;19939;-67
2022/09/21 16:50:34;;;;;;;;;;;;;;;;;;20762401;28;19936;-76
2022/09/21 17:00:36;;;;;;;;;;;;;;;;;;20760461;28;20336;-77
2022/09/21 17:10:38;;;;;;;;;;;;;;;;;;20760591;28;19925;-69
2022/09/21 17:20:40;;;;;;;;;;;;;;;;;;20760496;28;20718;-67
2022/09/21 17:30:45;;;;;;;;;;;;;;;;;;20758051;28;19925;-62
2022/09/21 17:40:47;;;;;;;;;;;;;;;;;;20758658;28;19929;-61
2022/09/21 17:50:48;;;;;;;;;;;;;;;;;;20756686;28;19926;-65
2022/09/21 18:00:51;;;;;;;;;;;;;;;;;;20755485;28;20027;-62
2022/09/21 18:10:53;;;;;;;;;;;;;;;;;;20757212;28;20401;-61
2022/09/21 18:21:00;;;;;;;;;;;;;;;;;;20754447;28;19926;-66
2022/09/21 18:31:02;;;;;;;;;;;;;;;;;;20759272;28;19972;-68
2022/09/21 18:41:04;;;;;;;;;;;;;;;;;;20718291;28;19930;-69
2022/09/21 18:51:06;;;;;;;;;;;;;;;;;;20728164;28;20011;-63
2022/09/21 19:01:08;;;;;;;;;;;;;;;;;;20706052;28;19925;-73
2022/09/21 19:11:10;;;;;;;;;;;;;;;;;;20673410;28;20014;-71
2022/09/21 19:21:12;;;;;;;;;;;;;;;;;;20672480;28;19926;-65
2022/09/21 19:31:14;;;;;;;;;;;;;;;;;;20670478;28;19985;-65
2022/09/21 19:41:15;;;;;;;;;;;;;;;;;;20669041;28;19926;-62
2022/09/21 19:51:18;;;;;;;;;;;;;;;;;;20668781;28;19969;-66
2022/09/21 20:01:20;;;;;;;;;;;;;;;;;;20668084;28;19925;-61
2022/09/21 20:11:21;;;;;;;;;;;;;;;;;;20667092;28;20490;-70
2022/09/21 20:21:23;;;;;;;;;;;;;;;;;;20667379;28;19932;-63
2022/09/21 20:31:25;;;;;;;;;;;;;;;;;;20667561;28;19933;-68
2022/09/21 20:41:27;;;;;;;;;;;;;;;;;;20667487;28;19926;-68
2022/09/21 20:51:29;;;;;;;;;;;;;;;;;;20666943;28;20038;-66
2022/09/21 21:01:32;;;;;;;;;;;;;;;;;;20669736;28;19926;-69
2022/09/21 21:11:34;;;;;;;;;;;;;;;;;;20670350;28;19930;-63
2022/09/21 21:21:36;;;;;;;;;;;;;;;;;;20671114;28;20390;-60
2022/09/21 21:31:38;;;;;;;;;;;;;;;;;;20679694;28;20014;-62
2022/09/21 21:41:40;;;;;;;;;;;;;;;;;;20678900;28;19988;-67
2022/09/21 21:51:43;;;;;;;;;;;;;;;;;;20677843;28;19932;-66
2022/09/21 22:01:45;;;;;;;;;;;;;;;;;;20677502;28;19929;-61
2022/09/21 22:11:47;;;;;;;;;;;;;;;;;;20677206;28;20031;-63
2022/09/21 22:21:49;;;;;;;;;;;;;;;;;;20675674;28;19980;-66
2022/09/21 22:31:50;;;;;;;;;;;;;;;;;;20673887;28;19925;-67
2022/09/21 22:41:52;;;;;;;;;;;;;;;;;;20674844;28;19926;-62
2022/09/21 22:51:54;;;;;;;;;;;;;;;;;;20675664;28;19929;-62
2022/09/21 23:01:56;;;;;;;;;;;;;;;;;;20673578;28;19926;-64
2022/09/21 23:11:59;;;;;;;;;;;;;;;;;;20673014;28;19948;-60
2022/09/21 23:22:02;;;;;;;;;;;;;;;;;;20671052;28;19932;-70
2022/09/21 23:32:06;;;;;;;;;;;;;;;;;;20669327;28;20271;-61
2022/09/21 23:42:08;;;;;;;;;;;;;;;;;;20669818;28;19926;-63
2022/09/21 23:52:10;;;;;;;;;;;;;;;;;;20671064;28;19926;-63
